METAR AND TAF INFORMATION
METAR FOR LFMD
ADDS - METARS form results

(2055 UTC 17 November 2019)
Data provider http://aviationweather.gov/metar/data/
 
METAR text: LFMD 172030Z AUTO VRB03KT CAVOK 05/03 Q1005
Conditions at: LFMD (CANNES/MANDELIEU, FR) observed 2030 UTC 17 November 2019
Temperature: 5.0°C (41°F)
Dewpoint: 3.0°C (37°F) [RH = 87%]
Pressure (altimeter): 29.68 inches Hg (1005.0 mb)
Winds: variable direction winds at 3 MPH (3 knots; 1.5 m/s)
Visibility: 6 or more miles (10+ km)
Ceiling: ceiling and visibility are OK
Clouds: unknown
Weather: no significant weather observed at this time

METAR text: LFMD 172000Z AUTO VRB03KT CAVOK 05/03 Q1005
Conditions at: LFMD (CANNES/MANDELIEU, FR) observed 2000 UTC 17 November 2019
Temperature: 5.0°C (41°F)
Dewpoint: 3.0°C (37°F) [RH = 87%]
Pressure (altimeter): 29.68 inches Hg (1005.0 mb)
Winds: variable direction winds at 3 MPH (3 knots; 1.5 m/s)
Visibility: 6 or more miles (10+ km)
Ceiling: ceiling and visibility are OK
Clouds: unknown
Weather: no significant weather observed at this time

Forecast for: LFMD (CANNES/MANDELIEU, FR)
Text: TAF LFMD 171400Z 1715/1815 24015KT CAVOK
Forecast period: 1500 to 2100 UTC 17 November 2019
Forecast type: FROM: standard forecast or significant change
Winds: from the WSW (240 degrees) at 17 MPH (15 knots; 7.7 m/s)
Visibility: 6 or more miles 10+ km)
Ceiling: unknown
Clouds: missing
Weather: NSW  (no significant weather)
Text: BECMG 1721/1723 34010KT
Forecast period: 2100 UTC 17 November 2019 to 1000 UTC 18 November 2019
Forecast type: BECOMING: Conditions expected to become as follows by 2300 UTC 17 November 2019
Winds: from the NNW (340 degrees) at 12 MPH (10 knots; 5.1 m/s)
Visibility: 6 or more miles 10+ km)
Ceiling: unknown
Clouds: missing
Weather: NSW  (no significant weather)
Text: BECMG 1810/1812 09015KT
Forecast period: 1000 to 1500 UTC 18 November 2019
Forecast type: BECOMING: Conditions expected to become as follows by 1200 UTC 18 November 2019
Winds: from the E (90 degrees) at 17 MPH (15 knots; 7.7 m/s)
Visibility: 6 or more miles 10+ km)
Ceiling: unknown
Clouds: missing
Weather: NSW  (no significant weather)

 AIRPORT MAP

 RUNWAY INFORMATION
Runway 05 Runway length 2493 ft Runway width 98 ft
Runway elevation 7 ft Runway displaced threshold 328 ft Runway heading 47
Runway 23 Runway length 2493 ft Runway width 98 ft
Runway elevation 10 ft Runway displaced threshold 98 ft Runway heading 227
Runway 17 Runway length 5282 ft Runway width 148 ft
Runway elevation 13 ft Runway displaced threshold 393 ft Runway heading 173
Runway 35 Runway length 5282 ft Runway width 148 ft
Runway elevation 13 ft Runway displaced threshold 1148 ft Runway heading 353

 AIRPORT FREQUENCIES
Type ATIS Name CANNES ATI Frequency 127.475 MHZ
Type GND Name CANNES GND Frequency 121.8 MHZ
Type TWR Name CANNES TWR Frequency 118.625 MHZ

 AIRPORT NEAR NAVIGATION AIDS
Type VOR Name Cannes Frequency 111400 KHZ



Powered by Western Air Virtual